Time;durP1;ratioP1;P1;durP2;ratioP2;P2;SDS_P1;SDS_P2;PMS_P1;PMS_P2;Temp;Humidity;BMP_temperature;BMP_pressure;BME280_temperature;BME280_humidity;BME280_pressure;Samples;Min_cycle;Max_cycle;Signal;HPM_P1;HPM_P2
2023/10/11 00:02:15;;;;;;;;;;;;;;;15.54;66.89;100645.03;4464586;32;34178;-74
2023/10/11 00:04:42;;;;;;;;;;;;;;;15.51;66.86;100640.56;4460354;32;34166;-70
2023/10/11 00:07:10;;;;;;;;;;;;;;;15.57;66.70;100644.22;4459558;32;34081;-71
2023/10/11 00:09:38;;;;;;;;;;;;;;;15.56;66.72;100643.34;4459927;32;32897;-73
2023/10/11 00:12:07;;;;;;;;;;;;;;;15.50;66.82;100638.78;4456731;32;33867;-71
2023/10/11 00:14:39;;;;;;;;;;;;;;;15.42;67.04;100640.22;4456816;32;33283;-73
2023/10/11 00:17:10;;;;;;;;;;;;;;;15.56;66.36;100632.03;4459183;32;34261;-70
2023/10/11 00:19:39;;;;;;;;;;;;;;;15.32;67.14;100632.88;4457628;32;33862;-72
2023/10/11 00:22:06;;;;;;;;;;;;;;;15.26;67.27;100630.00;4463138;32;34138;-74
2023/10/11 00:24:33;;;;;;;;;;;;;;;15.40;67.04;100630.56;4464163;32;33469;-73
2023/10/11 00:27:02;;;;;;;;;;;;;;;15.50;66.39;100633.56;4463633;32;34060;-74
2023/10/11 00:29:29;;;;;;;;;;;;;;;15.58;65.87;100635.59;4460060;32;34171;-70
2023/10/11 00:31:57;;;;;;;;;;;;;;;15.54;65.85;100635.47;4456536;32;33890;-73
2023/10/11 00:34:24;;;;;;;;;;;;;;;15.27;66.60;100639.63;4465365;32;33109;-71
2023/10/11 00:36:52;;;;;;;;;;;;;;;15.31;66.71;100633.69;4464672;32;34158;-70
2023/10/11 00:39:19;;;;;;;;;;;;;;;15.40;66.31;100635.78;4460997;32;34762;-71
2023/10/11 00:41:48;;;;;;;;;;;;;;;15.21;66.89;100628.94;4461918;32;33803;-72
2023/10/11 00:44:19;;;;;;;;;;;;;;;15.39;66.35;100628.75;4453634;32;33430;-72
2023/10/11 00:49:39;;;;;;;;;;;;;;;14.91;67.45;100629.50;4461759;32;33987;-70
2023/10/11 00:52:07;;;;;;;;;;;;;;;14.98;67.38;100626.31;4465076;32;34576;-73
2023/10/11 00:54:37;;;;;;;;;;;;;;;15.14;66.36;100618.28;4454757;32;32959;-75
2023/10/11 00:57:04;;;;;;;;;;;;;;;15.02;66.68;100623.00;4462562;32;34008;-71
2023/10/11 00:59:32;;;;;;;;;;;;;;;15.00;66.66;100616.81;4456529;32;34867;-73
2023/10/11 01:01:59;;;;;;;;;;;;;;;14.82;67.17;100618.72;4461246;32;34115;-69
2023/10/11 01:04:33;;;;;;;;;;;;;;;14.73;67.29;100612.25;4459530;32;33855;-70
2023/10/11 01:07:02;;;;;;;;;;;;;;;14.82;67.13;100618.72;4464212;32;34016;-72
2023/10/11 01:09:29;;;;;;;;;;;;;;;14.80;67.10;100617.75;4465430;32;34959;-73
2023/10/11 01:11:57;;;;;;;;;;;;;;;14.85;67.14;100608.38;4464723;32;34819;-70
2023/10/11 01:14:25;;;;;;;;;;;;;;;14.87;67.26;100606.72;4466259;32;33070;-72
2023/10/11 01:16:53;;;;;;;;;;;;;;;15.00;66.77;100614.22;4457816;32;34284;-72
2023/10/11 01:19:23;;;;;;;;;;;;;;;14.92;66.85;100615.63;4462233;32;33140;-73
2023/10/11 01:21:54;;;;;;;;;;;;;;;14.85;66.83;100618.81;4453449;32;34511;-71
2023/10/11 01:24:22;;;;;;;;;;;;;;;14.94;66.33;100622.69;4454386;32;33364;-70
2023/10/11 01:26:49;;;;;;;;;;;;;;;14.85;66.38;100630.13;4460720;32;34198;-72
2023/10/11 01:29:17;;;;;;;;;;;;;;;14.80;66.65;100630.81;4460538;32;33519;-71
2023/10/11 01:31:44;;;;;;;;;;;;;;;14.83;66.65;100623.97;4465796;32;33865;-73
2023/10/11 01:34:14;;;;;;;;;;;;;;;14.92;66.07;100631.28;4465316;32;33073;-70
2023/10/11 01:36:46;;;;;;;;;;;;;;;14.86;65.99;100621.50;4459804;32;33919;-70
2023/10/11 01:39:14;;;;;;;;;;;;;;;14.69;66.68;100622.53;4463139;32;33203;-71
2023/10/11 01:41:42;;;;;;;;;;;;;;;14.84;66.70;100627.47;4463573;32;33867;-69
2023/10/11 01:44:11;;;;;;;;;;;;;;;14.82;66.53;100623.94;4464008;32;33121;-70
2023/10/11 01:46:40;;;;;;;;;;;;;;;14.75;66.55;100623.66;4468200;32;34063;-71
2023/10/11 01:49:10;;;;;;;;;;;;;;;14.65;66.81;100626.72;4465088;32;33717;-70
2023/10/11 01:51:46;;;;;;;;;;;;;;;14.90;66.10;100635.56;4458561;32;34750;-70
2023/10/11 01:54:18;;;;;;;;;;;;;;;14.72;66.47;100633.97;4460390;32;33376;-70
2023/10/11 01:56:46;;;;;;;;;;;;;;;14.59;66.94;100636.00;4465998;32;34324;-71
2023/10/11 01:59:15;;;;;;;;;;;;;;;14.66;67.05;100638.03;4459636;32;33888;-73
2023/10/11 02:01:54;;;;;;;;;;;;;;;14.69;66.69;100628.62;4460836;32;33996;-72
2023/10/11 02:04:23;;;;;;;;;;;;;;;14.60;67.02;100628.22;4461900;32;33265;-72
2023/10/11 02:06:50;;;;;;;;;;;;;;;14.81;66.06;100627.34;4458241;32;33382;-74
2023/10/11 02:09:20;;;;;;;;;;;;;;;14.80;65.98;100621.25;4464065;32;34897;-71
2023/10/11 02:11:52;;;;;;;;;;;;;;;14.56;66.63;100628.91;4463592;32;34327;-70
2023/10/11 02:14:22;;;;;;;;;;;;;;;14.56;66.92;100621.06;4457341;32;33883;-71
2023/10/11 02:16:49;;;;;;;;;;;;;;;14.65;66.99;100613.69;4458167;32;33978;-73
2023/10/11 02:19:18;;;;;;;;;;;;;;;14.86;66.11;100629.31;4460870;32;34009;-70
2023/10/11 02:21:46;;;;;;;;;;;;;;;14.61;66.58;100631.75;4462040;32;34852;-73
2023/10/11 02:24:16;;;;;;;;;;;;;;;14.54;66.86;100633.16;4458393;32;32717;-72
2023/10/11 02:26:49;;;;;;;;;;;;;;;14.50;66.86;100626.03;4465993;32;34200;-73
2023/10/11 02:29:25;;;;;;;;;;;;;;;14.55;66.76;100629.75;4461186;32;34937;-74
2023/10/11 02:31:53;;;;;;;;;;;;;;;14.52;67.62;100640.03;4464627;32;34789;-72
2023/10/11 02:34:21;;;;;;;;;;;;;;;14.58;67.09;100637.69;4464469;32;32715;-73
2023/10/11 02:37:05;;;;;;;;;;;;;;;14.58;66.81;100635.09;4466734;32;34335;-73
2023/10/11 02:39:34;;;;;;;;;;;;;;;14.50;66.88;100632.12;4460756;32;34723;-70
2023/10/11 02:42:05;;;;;;;;;;;;;;;14.64;66.42;100632.78;4464882;32;34765;-71
2023/10/11 02:44:39;;;;;;;;;;;;;;;14.32;67.58;100637.47;4455799;32;32419;-71
2023/10/11 02:47:09;;;;;;;;;;;;;;;14.60;66.65;100633.44;4469862;32;34917;-74
2023/10/11 02:49:37;;;;;;;;;;;;;;;14.47;67.33;100625.94;4460252;32;32170;-70
2023/10/11 02:52:07;;;;;;;;;;;;;;;14.36;67.56;100618.53;4466425;32;33541;-72
2023/10/11 02:54:38;;;;;;;;;;;;;;;14.35;67.70;100615.84;4465774;32;33067;-71
2023/10/11 02:57:18;;;;;;;;;;;;;;;14.59;67.31;100618.66;4465466;32;34897;-69
2023/10/11 02:59:52;;;;;;;;;;;;;;;14.70;67.02;100613.87;4467080;32;34048;-70
2023/10/11 03:02:21;;;;;;;;;;;;;;;14.82;66.34;100614.38;4465067;32;33877;-71
2023/10/11 03:04:50;;;;;;;;;;;;;;;14.88;65.54;100614.62;4467263;32;33844;-73
2023/10/11 03:07:23;;;;;;;;;;;;;;;14.75;66.11;100613.22;4463181;32;35065;-71
2023/10/11 03:09:54;;;;;;;;;;;;;;;14.71;66.16;100613.91;4464034;32;34013;-71
2023/10/11 03:12:31;;;;;;;;;;;;;;;14.53;67.03;100623.56;4465555;32;33141;-71
2023/10/11 03:15:12;;;;;;;;;;;;;;;14.41;67.37;100625.62;4465948;32;33867;-73
2023/10/11 03:17:45;;;;;;;;;;;;;;;14.33;67.70;100618.41;4460249;32;34272;-70
2023/10/11 03:20:29;;;;;;;;;;;;;;;14.53;67.21;100623.56;4464618;32;34275;-71
2023/10/11 03:22:59;;;;;;;;;;;;;;;14.35;67.87;100621.97;4463638;32;33864;-70
2023/10/11 03:25:29;;;;;;;;;;;;;;;14.57;67.62;100630.72;4469135;32;32946;-72
2023/10/11 03:27:56;;;;;;;;;;;;;;;14.72;67.03;100623.53;4468015;32;34302;-70
2023/10/11 03:30:24;;;;;;;;;;;;;;;14.67;67.34;100627.66;4467788;32;35121;-72
2023/10/11 03:32:52;;;;;;;;;;;;;;;14.55;67.76;100629.75;4467569;32;34135;-73
2023/10/11 03:35:20;;;;;;;;;;;;;;;14.54;67.98;100630.56;4458474;32;33749;-72
2023/10/11 03:37:59;;;;;;;;;;;;;;;14.57;67.95;100630.72;4460380;32;35022;-71
2023/10/11 03:40:54;;;;;;;;;;;;;;;14.55;68.22;100635.84;4466248;32;34948;-73
2023/10/11 03:43:23;;;;;;;;;;;;;;;14.55;68.42;100634.97;4462426;32;33957;-74
2023/10/11 03:45:51;;;;;;;;;;;;;;;14.69;67.93;100628.62;4465519;32;33122;-74
2023/10/11 03:48:20;;;;;;;;;;;;;;;14.58;68.27;100629.00;4466524;32;34262;-72
2023/10/11 03:50:47;;;;;;;;;;;;;;;14.73;68.13;100622.69;4458589;32;34257;-69
2023/10/11 03:53:15;;;;;;;;;;;;;;;14.75;68.05;100627.97;4458137;32;33949;-69
2023/10/11 03:55:47;;;;;;;;;;;;;;;14.79;67.85;100629.00;4462294;32;33295;-69
2023/10/11 04:03:44;;;;;;;;;;;;;;;14.79;68.04;100627.28;4456138;32;34560;-71
2023/10/11 04:06:15;;;;;;;;;;;;;;;14.86;68.00;100620.59;4466492;32;33126;-72
2023/10/11 04:08:43;;;;;;;;;;;;;;;14.88;67.97;100618.94;4465284;32;34190;-70
2023/10/11 04:11:17;;;;;;;;;;;;;;;14.83;68.21;100629.19;4458595;32;34021;-72
2023/10/11 04:13:48;;;;;;;;;;;;;;;14.85;68.40;100634.47;4462140;32;34284;-71
2023/10/11 04:16:17;;;;;;;;;;;;;;;14.94;67.92;100632.22;4465574;32;33249;-72
2023/10/11 04:18:44;;;;;;;;;;;;;;;15.07;67.48;100611.03;4460212;32;34819;-73
2023/10/11 04:21:25;;;;;;;;;;;;;;;15.07;67.29;100611.03;4458816;32;34659;-72
2023/10/11 04:23:56;;;;;;;;;;;;;;;14.93;67.99;100622.59;4459443;32;34203;-71
2023/10/11 04:28:58;;;;;;;;;;;;;;;15.06;67.54;100629.22;4459427;32;34715;-72
2023/10/11 04:31:30;;;;;;;;;;;;;;;15.04;67.65;100634.38;4456414;32;33556;-71
2023/10/11 04:33:59;;;;;;;;;;;;;;;15.04;67.89;100629.16;4456607;32;35077;-74
2023/10/11 04:36:28;;;;;;;;;;;;;;;15.17;67.48;100632.28;4452517;32;34364;-69
2023/10/11 04:39:14;;;;;;;;;;;;;;;14.98;68.15;100636.75;4450834;32;33988;-70
2023/10/11 04:41:50;;;;;;;;;;;;;;;15.12;68.10;100640.81;4450313;32;35007;-73
2023/10/11 04:44:18;;;;;;;;;;;;;;;15.27;67.60;100634.41;4451921;32;32461;-73
2023/10/11 04:46:57;;;;;;;;;;;;;;;15.33;67.39;100632.03;4432082;32;31220;-70
2023/10/11 04:49:25;;;;;;;;;;;;;;;15.31;67.19;100637.19;4447939;32;34708;-72
2023/10/11 04:51:57;;;;;;;;;;;;;;;15.25;67.56;100641.28;4447547;32;33354;-73
2023/10/11 04:54:36;;;;;;;;;;;;;;;15.14;67.85;100646.06;4447268;32;34504;-70
2023/10/11 04:57:07;;;;;;;;;;;;;;;15.18;67.72;100654.91;4431423;32;31232;-70
2023/10/11 05:02:08;;;;;;;;;;;;;;;15.09;68.14;100634.56;4444268;32;34037;-70
2023/10/11 05:04:42;;;;;;;;;;;;;;;15.18;68.23;100642.75;4445726;32;32904;-70
2023/10/11 05:07:09;;;;;;;;;;;;;;;15.19;68.09;100651.50;4445717;32;34096;-70
2023/10/11 05:09:41;;;;;;;;;;;;;;;15.18;68.19;100652.31;4436251;32;32166;-70
2023/10/11 05:12:10;;;;;;;;;;;;;;;15.28;67.90;100646.63;4443788;32;33843;-70
2023/10/11 05:19:46;;;;;;;;;;;;;;;15.37;67.75;100662.62;4444913;32;34065;-70
2023/10/11 05:22:49;;;;;;;;;;;;;;;15.19;68.41;100661.94;4441966;32;34883;-70
2023/10/11 05:25:37;;;;;;;;;;;;;;;15.23;68.70;100661.22;4434117;32;34413;-70
2023/10/11 05:31:00;;;;;;;;;;;;;;;15.34;68.58;100676.47;4445505;32;34936;-70
2023/10/11 05:33:41;;;;;;;;;;;;;;;15.34;68.56;100683.41;4449497;32;33876;-70
2023/10/11 05:36:31;;;;;;;;;;;;;;;15.44;68.53;100680.34;4443277;32;33718;-70
2023/10/11 05:52:51;;;;;;;;;;;;;;;15.56;68.87;100663.38;4446794;32;34095;-70
2023/10/11 05:55:18;;;;;;;;;;;;;;;15.65;68.85;100668.94;4452523;32;34933;-70
2023/10/11 05:57:45;;;;;;;;;;;;;;;15.80;68.39;100668.66;4451334;32;33765;-70
2023/10/11 06:00:23;;;;;;;;;;;;;;;15.87;68.42;100674.16;4450653;32;33222;-70
2023/10/11 06:02:52;;;;;;;;;;;;;;;15.91;68.06;100678.66;4451118;32;33720;-70
2023/10/11 06:05:23;;;;;;;;;;;;;;;15.82;68.44;100680.97;4449803;32;35005;-70
2023/10/11 06:08:01;;;;;;;;;;;;;;;15.82;68.58;100678.34;4432427;32;33618;-70
2023/10/11 06:10:32;;;;;;;;;;;;;;;15.87;68.45;100691.56;4431611;32;32677;-70
2023/10/11 06:13:02;;;;;;;;;;;;;;;15.95;68.37;100689.22;4451732;32;34950;-72
2023/10/11 06:15:30;;;;;;;;;;;;;;;16.06;68.06;100695.75;4450268;32;34080;-72
2023/10/11 06:17:57;;;;;;;;;;;;;;;16.03;68.00;100695.63;4449478;32;34418;-69
2023/10/11 06:20:28;;;;;;;;;;;;;;;16.04;67.94;100697.44;4449663;32;33089;-69
2023/10/11 06:22:56;;;;;;;;;;;;;;;16.07;68.14;100700.12;4443928;32;34300;-73
2023/10/11 06:25:49;;;;;;;;;;;;;;;15.71;69.16;100684.84;4446160;32;35022;-72
2023/10/11 06:28:15;;;;;;;;;;;;;;;15.82;69.11;100694.00;4450645;32;33491;-70
2023/10/11 06:30:48;;;;;;;;;;;;;;;15.96;68.93;100691.03;4446632;32;32627;-72
2023/10/11 06:33:21;;;;;;;;;;;;;;;16.00;69.11;100695.53;4449100;32;34434;-69
2023/10/11 06:35:49;;;;;;;;;;;;;;;15.95;68.97;100695.34;4455877;32;34220;-71
2023/10/11 06:38:17;;;;;;;;;;;;;;;15.91;69.34;100691.72;4454651;32;33569;-71
2023/10/11 06:40:49;;;;;;;;;;;;;;;15.88;69.67;100685.53;4453384;32;33279;-70
2023/10/11 06:43:16;;;;;;;;;;;;;;;15.98;69.50;100692.84;4448001;32;35299;-73
2023/10/11 06:45:44;;;;;;;;;;;;;;;16.05;69.54;100696.56;4455015;32;35521;-74
2023/10/11 06:48:13;;;;;;;;;;;;;;;16.16;69.12;100700.47;4453813;32;34103;-70
2023/10/11 06:50:41;;;;;;;;;;;;;;;16.06;69.68;100698.37;4459082;32;32841;-73
2023/10/11 06:53:09;;;;;;;;;;;;;;;16.25;69.21;100699.94;4457862;32;34026;-71
2023/10/11 06:55:39;;;;;;;;;;;;;;;16.14;69.91;100696.91;4452693;32;34691;-73
2023/10/11 06:58:15;;;;;;;;;;;;;;;16.18;70.15;100697.94;4450276;32;33910;-69
2023/10/11 07:00:46;;;;;;;;;;;;;;;16.16;70.55;100700.47;4451608;32;33512;-72
2023/10/11 07:05:49;;;;;;;;;;;;;;;16.38;70.46;100702.16;4452960;32;33951;-71
2023/10/11 07:08:17;;;;;;;;;;;;;;;16.55;70.47;100700.12;4454250;32;35058;-72
2023/10/11 07:16:21;;;;;;;;;;;;;;;16.36;71.22;100698.59;4452555;32;34171;-69
2023/10/11 07:18:53;;;;;;;;;;;;;;;16.48;70.65;100709.47;4450812;32;33781;-69
2023/10/11 07:21:25;;;;;;;;;;;;;;;16.33;71.00;100711.56;4450154;32;33373;-69
2023/10/11 07:28:59;;;;;;;;;;;;;;;16.83;71.62;100711.59;4445418;32;34858;-71
2023/10/11 07:31:32;;;;;;;;;;;;;;;16.77;72.03;100712.22;4450628;32;33832;-70
2023/10/11 07:34:05;;;;;;;;;;;;;;;16.90;71.82;100713.53;4432594;32;33897;-69
2023/10/11 07:36:33;;;;;;;;;;;;;;;17.03;71.18;100713.12;4451823;32;34296;-70
2023/10/11 07:39:14;;;;;;;;;;;;;;;17.12;70.80;100714.28;4448463;32;32200;-74
2023/10/11 07:41:43;;;;;;;;;;;;;;;17.08;70.63;100702.81;4449525;32;33802;-70
2023/10/11 07:44:12;;;;;;;;;;;;;;;17.25;70.12;100701.63;4462232;32;34204;-71
2023/10/11 07:46:40;;;;;;;;;;;;;;;17.23;70.42;100705.94;4468235;32;35314;-74
2023/10/11 07:49:09;;;;;;;;;;;;;;;17.26;70.55;100707.75;4458901;32;34969;-71
2023/10/11 07:51:39;;;;;;;;;;;;;;;17.36;70.34;100708.94;4461129;32;33391;-69
2023/10/11 07:54:07;;;;;;;;;;;;;;;17.32;70.50;100712.31;4445358;32;34222;-70
2023/10/11 07:56:37;;;;;;;;;;;;;;;17.30;70.37;100705.28;4453622;32;33958;-72
2023/10/11 07:59:08;;;;;;;;;;;;;;;17.53;70.31;100697.25;4461070;32;33455;-69
2023/10/11 08:01:45;;;;;;;;;;;;;;;17.75;69.90;100701.44;4476065;32;34207;-69
2023/10/11 08:04:17;;;;;;;;;;;;;;;17.75;69.44;100698.81;4466311;32;34825;-70
2023/10/11 08:06:45;;;;;;;;;;;;;;;17.80;69.64;100702.44;4475654;32;33676;-69
2023/10/11 08:09:19;;;;;;;;;;;;;;;17.87;69.03;100706.19;4466377;32;34752;-70
2023/10/11 08:11:56;;;;;;;;;;;;;;;17.97;68.74;100704.72;4445283;32;33529;-69
2023/10/11 08:14:29;;;;;;;;;;;;;;;18.07;68.03;100712.88;4460337;32;34407;-70
2023/10/11 08:16:59;;;;;;;;;;;;;;;18.02;68.44;100710.97;4457387;32;34062;-69
2023/10/11 08:19:26;;;;;;;;;;;;;;;18.15;68.29;100710.47;4468658;32;34741;-69
2023/10/11 08:21:57;;;;;;;;;;;;;;;18.35;68.04;100702.28;4468890;32;33357;-70
2023/10/11 08:24:25;;;;;;;;;;;;;;;18.57;67.35;100704.66;4448200;32;32177;-69
2023/10/11 08:27:07;;;;;;;;;;;;;;;18.64;66.40;100709.22;4472770;32;34589;-70
2023/10/11 08:29:35;;;;;;;;;;;;;;;18.61;66.67;100706.50;4463583;32;35291;-70
2023/10/11 08:32:15;;;;;;;;;;;;;;;18.94;66.39;100710.00;4462328;32;34017;-70
2023/10/11 08:34:46;;;;;;;;;;;;;;;19.10;66.28;100706.00;4465139;32;34760;-70
2023/10/11 08:37:14;;;;;;;;;;;;;;;19.18;65.26;100697.47;4465940;32;33990;-69
2023/10/11 08:39:44;;;;;;;;;;;;;;;19.17;65.07;100697.44;4458531;32;33841;-70
2023/10/11 08:42:14;;;;;;;;;;;;;;;19.32;64.68;100702.19;4476624;32;33781;-70
2023/10/11 08:44:45;;;;;;;;;;;;;;;19.55;64.16;100695.72;4469414;32;33962;-70
2023/10/11 08:47:13;;;;;;;;;;;;;;;19.41;64.06;100703.28;4446589;32;33969;-70
2023/10/11 08:49:48;;;;;;;;;;;;;;;19.64;63.28;100695.00;4457577;32;34928;-70
2023/10/11 08:52:19;;;;;;;;;;;;;;;19.82;63.32;100695.47;4466455;32;34214;-70
2023/10/11 08:54:46;;;;;;;;;;;;;;;20.02;62.65;100692.34;4469473;32;34243;-70
2023/10/11 08:57:14;;;;;;;;;;;;;;;20.01;62.05;100691.47;4459768;32;33771;-70
2023/10/11 08:59:56;;;;;;;;;;;;;;;20.15;62.05;100689.13;4455936;32;33303;-70
2023/10/11 09:02:26;;;;;;;;;;;;;;;20.28;61.15;100694.59;4462452;32;34085;-70
2023/10/11 09:05:06;;;;;;;;;;;;;;;20.31;61.09;100689.41;4454807;32;34993;-70
2023/10/11 09:07:52;;;;;;;;;;;;;;;20.63;59.85;100692.69;4452459;32;86717;-70
2023/10/11 09:10:26;;;;;;;;;;;;;;;20.82;59.61;100699.16;4449937;32;32440;-73
2023/10/11 09:12:56;;;;;;;;;;;;;;;21.11;58.56;100690.84;4457001;32;33816;-70
2023/10/11 09:15:40;;;;;;;;;;;;;;;21.16;57.76;100686.56;4469032;32;34242;-73
2023/10/11 09:18:15;;;;;;;;;;;;;;;21.39;57.01;100682.50;4443710;32;34857;-69
2023/10/11 09:23:34;;;;;;;;;;;;;;;21.86;56.31;100688.44;4451369;32;31759;-70
2023/10/11 09:26:02;;;;;;;;;;;;;;;22.17;54.42;100689.69;4466843;32;33678;-73
2023/10/11 09:28:33;;;;;;;;;;;;;;;22.18;53.94;100687.09;4461510;32;35509;-70
2023/10/11 09:31:10;;;;;;;;;;;;;;;22.41;53.74;100689.16;4470781;32;34987;-71
2023/10/11 09:33:40;;;;;;;41.75;19.25;;;;;;;22.52;54.15;100697.16;4472943;32;33263;-71
2023/10/11 09:36:09;;;;;;;39.38;18.65;;;;;;;22.86;52.36;100687.81;4476211;32;34794;-73
2023/10/11 09:38:40;;;;;;;28.23;13.05;;;;;;;22.93;52.29;100689.62;4451046;32;34476;-72
2023/10/11 09:41:09;;;;;;;28.00;12.57;;;;;;;23.04;51.29;100692.38;4478171;32;34907;-72
2023/10/11 09:43:41;;;;;;;;;;;;;;;23.25;49.95;100686.38;4462873;32;34439;-73
2023/10/11 09:46:13;;;;;;;29.12;14.43;;;;;;;23.43;50.98;100684.72;4461073;32;33946;-70
2023/10/11 09:48:41;;;;;;;28.55;15.20;;;;;;;23.71;50.41;100680.50;4466380;32;33709;-70
2023/10/11 09:51:13;;;;;;;33.40;16.02;;;;;;;23.77;49.32;100684.94;4464357;32;33866;-70
2023/10/11 09:53:42;;;;;;;35.08;15.82;;;;;;;23.82;49.17;100684.09;4469047;32;34335;-70
2023/10/11 09:56:19;;;;;;;30.83;16.70;;;;;;;24.11;48.81;100686.00;4470720;32;33907;-70
2023/10/11 09:59:00;;;;;;;33.95;16.90;;;;;;;24.19;49.17;100694.84;4468003;32;33574;-70
2023/10/11 10:01:32;;;;;;;;;;;;;;;24.03;48.21;100687.69;4459482;32;33980;-70
2023/10/11 10:04:06;;;;;;;;;;;;;;;24.07;49.15;100684.22;4441738;32;33660;-70
2023/10/11 10:06:34;;;;;;;;;;;;;;;24.17;49.11;100686.00;4465139;32;34207;-70
2023/10/11 10:12:06;;;;;;;29.70;16.73;;;;;;;24.29;48.44;100669.28;4437025;32;33053;-70
2023/10/11 10:14:36;;;;;;;22.98;13.43;;;;;;;24.46;48.49;100672.84;4468306;32;33697;-70
2023/10/11 10:17:06;;;;;;;27.65;14.23;;;;;;;24.69;47.40;100674.69;4452077;32;33845;-70
2023/10/11 10:19:39;;;;;;;23.50;12.70;;;;;;;24.97;47.08;100658.75;4474379;32;34710;-70
2023/10/11 10:22:17;;;;;;;25.42;12.70;;;;;;;25.20;45.91;100656.97;4470076;32;34652;-70
2023/10/11 10:24:46;;;;;;;23.60;12.85;;;;;;;25.38;46.20;100655.19;4475852;32;33497;-70
2023/10/11 10:27:23;;;;;;;25.52;12.32;;;;;;;25.27;46.05;100652.59;4455062;32;34083;-70
2023/10/11 10:29:55;;;;;;;;;;;;;;;25.53;45.98;100638.38;4469101;32;34396;-70
2023/10/11 10:32:23;;;;;;;22.92;11.35;;;;;;;25.63;45.04;100646.31;4467364;32;34007;-70
2023/10/11 10:35:20;;;;;;;18.67;10.38;;;;;;;25.80;45.60;100642.69;4465324;32;33527;-69
2023/10/11 10:37:47;;;;;;;20.17;10.63;;;;;;;25.38;45.06;100640.19;4465383;32;33714;-69
2023/10/11 10:40:25;;;;;;;20.20;10.15;;;;;;;25.50;45.65;100634.84;4465909;32;33365;-70
2023/10/11 10:43:20;;;;;;;19.27;10.40;;;;;;;25.73;45.58;100635.62;4462263;32;34667;-68
2023/10/11 10:45:52;;;;;;;22.20;12.55;;;;;;;25.39;44.98;100630.47;4458026;32;32017;-70
2023/10/11 10:48:24;;;;;;;21.23;12.40;;;;;;;25.46;45.37;100622.47;4461624;32;33560;-69
2023/10/11 10:51:01;;;;;;;21.58;11.45;;;;;;;25.67;45.26;100618.88;4459081;32;34716;-70
2023/10/11 10:53:39;;;;;;;16.40;9.80;;;;;;;25.90;44.92;100615.19;4468638;32;33617;-70
2023/10/11 10:56:20;;;;;;;14.20;8.38;;;;;;;26.06;44.94;100614.28;4470633;32;33480;-70
2023/10/11 10:58:48;;;;;;;16.85;8.13;;;;;;;26.42;43.66;100612.25;4453755;32;33655;-70
2023/10/11 11:01:26;;;;;;;10.98;7.20;;;;;;;26.35;44.11;100609.66;4452216;32;31892;-71
2023/10/11 11:03:58;;;;;;;14.27;9.02;;;;;;;26.18;43.70;100602.69;4455402;32;32962;-70
2023/10/11 11:06:36;;;;;;;;;;;;;;;25.57;45.90;100595.88;4464033;32;33387;-71
2023/10/11 11:09:04;;;;;;;;;;;;;;;26.21;44.52;100588.50;4468482;32;34581;-70
2023/10/11 11:11:35;;;;;;;10.68;5.87;;;;;;;26.67;44.66;100585.50;4470721;32;34949;-70
2023/10/11 11:14:08;;;;;;;;;;;;;;;26.78;43.11;100577.47;4461327;32;33870;-69
2023/10/11 11:16:41;;;;;;;12.23;6.30;;;;;;;26.61;44.19;100585.56;4466775;32;33284;-70
2023/10/11 11:19:16;;;;;;;11.70;6.47;;;;;;;26.62;42.83;100576.72;4450666;32;32026;-69
2023/10/11 11:21:46;;;;;;;11.70;6.90;;;;;;;26.12;44.08;100576.19;4464893;32;33960;-70
2023/10/11 11:24:14;;;;;;;10.18;5.00;;;;;;;26.26;43.81;100573.44;4461194;32;33897;-71
2023/10/11 11:26:43;;;;;;;11.10;5.07;;;;;;;26.76;44.12;100573.94;4459130;32;33562;-70
2023/10/11 11:29:16;;;;;;;10.68;6.18;;;;;;;26.70;43.10;100563.38;4473428;32;34512;-70
2023/10/11 11:31:57;;;;;;;9.00;5.67;;;;;;;26.67;42.47;100565.13;4458875;32;32870;-71
2023/10/11 11:34:34;;;;;;;7.25;4.37;;;;;;;26.91;42.82;100562.25;4462301;32;33917;-70
2023/10/11 11:37:07;;;;;;;11.02;4.85;;;;;;;27.30;42.94;100554.78;4451799;32;33394;-70
2023/10/11 11:39:42;;;;;;;8.93;5.68;;;;;;;27.69;41.32;100552.50;4445654;32;33767;-70
2023/10/11 11:42:24;;;;;;;10.43;5.65;;;;;;;27.52;41.04;100545.63;4428355;32;34160;-71
2023/10/11 11:44:55;;;;;;;9.48;4.97;;;;;;;26.96;42.58;100539.16;4429049;32;33737;-71
2023/10/11 11:47:23;;;;;;;8.60;4.50;;;;;;;27.61;41.78;100540.19;4443078;32;33664;-71
2023/10/11 11:49:59;;;;;;;14.35;5.65;;;;;;;27.96;40.77;100533.50;4445288;32;33497;-71
2023/10/11 11:52:28;;;;;;;11.77;5.10;;;;;;;27.58;40.41;100540.22;4451496;32;34031;-71
2023/10/11 11:54:56;;;;;;;10.82;6.10;;;;;;;27.65;41.65;100536.56;4447437;32;33373;-70
2023/10/11 11:57:29;;;;;;;10.48;5.43;;;;;;;27.51;41.13;100527.91;4448595;32;33950;-71
2023/10/11 12:00:01;;;;;;;12.35;5.15;;;;;;;27.75;40.73;100521.34;4437860;32;34717;-71
2023/10/11 12:02:35;;;;;;;11.63;4.97;;;;;;;27.99;40.92;100520.16;4453669;32;33782;-71
2023/10/11 12:05:04;;;;;;;10.50;4.72;;;;;;;27.91;41.33;100522.06;4448655;32;34432;-72
2023/10/11 12:07:32;;;;;;;9.32;4.70;;;;;;;28.28;40.36;100510.81;4448244;32;33270;-70
2023/10/11 12:09:59;;;;;;;10.52;5.50;;;;;;;28.32;40.72;100512.50;4433985;32;33445;-71
2023/10/11 12:12:31;;;;;;;11.00;5.07;;;;;;;28.04;39.82;100514.72;4445998;32;33200;-71
2023/10/11 12:14:59;;;;;;;10.88;4.93;;;;;;;27.60;41.21;100524.22;4451253;32;34588;-71
2023/10/11 12:17:28;;;;;;;;;;;;;;;27.84;40.70;100509.69;4436365;32;33695;-71
2023/10/11 12:19:56;;;;;;;7.72;2.97;;;;;;;27.95;39.64;100506.88;4447538;32;33918;-71
2023/10/11 12:22:24;;;;;;;8.00;2.70;;;;;;;28.03;37.83;100505.88;4448383;32;33195;-71
2023/10/11 12:24:51;;;;;;;7.60;2.45;;;;;;;27.98;39.80;100506.84;4450125;32;34020;-71
2023/10/11 12:27:22;;;;;;;8.73;2.78;;;;;;;28.01;37.00;100502.38;4441896;32;33411;-69
2023/10/11 12:29:53;;;;;;;10.45;2.97;;;;;;;27.89;37.48;100497.22;4439824;32;33772;-70
2023/10/11 12:32:35;;;;;;;10.13;2.70;;;;;;;27.80;37.98;100502.66;4449052;32;33630;-70
2023/10/11 12:35:08;;;;;;;8.18;2.78;;;;;;;28.13;37.97;100497.75;4449070;32;32146;-71
2023/10/11 12:37:36;;;;;;;7.30;3.08;;;;;;;27.82;38.16;100490.22;4460053;32;32963;-70
2023/10/11 12:40:11;;;;;;;8.25;3.37;;;;;;;27.82;38.38;100491.06;4456578;32;33834;-71
2023/10/11 12:42:46;;;;;;;6.90;2.95;;;;;;;27.79;38.41;100477.81;4463556;32;30553;-70
2023/10/11 12:45:16;;;;;;;7.97;2.90;;;;;;;28.05;37.90;100476.56;4462968;32;33962;-71
2023/10/11 12:47:46;;;;;;;7.22;2.92;;;;;;;28.41;37.00;100483.06;4460131;32;33781;-71
2023/10/11 12:50:17;;;;;;;8.40;3.25;;;;;;;28.85;36.02;100469.81;4459728;32;32826;-71
2023/10/11 12:52:45;;;;;;;;;;;;;;;28.91;36.66;100471.47;4465766;32;33309;-71
2023/10/11 12:55:13;;;;;;;;;;;;;;;28.83;35.52;100471.63;4454324;32;33860;-70
2023/10/11 12:57:40;;;;;;;;;;;;;;;28.61;36.66;100472.03;4453968;32;34131;-71
2023/10/11 13:03:18;;;;;;;;;;;;;;;28.63;37.07;100470.22;4458970;32;33649;-70
2023/10/11 13:05:45;;;;;;;;;;;;;;;28.17;36.89;100455.03;4459172;32;34471;-71
2023/10/11 13:08:14;;;;;;;;;;;;;;;28.16;36.64;100455.06;4465276;32;33654;-71
2023/10/11 13:10:43;;;;;;;;;;;;;;;28.15;37.02;100455.97;4464708;32;34786;-71
2023/10/11 13:13:13;;;;;;;;;;;;;;;28.22;36.85;100446.94;4458726;32;34753;-71
2023/10/11 13:16:00;;;;;;;;;;;;;;;28.31;37.20;100448.59;4466105;32;34237;-69
2023/10/11 13:18:29;;;;;;;;;;;;;;;28.40;36.58;100435.09;4454737;32;33150;-71
2023/10/11 13:20:57;;;;;;;;;;;;;;;28.41;36.28;100429.75;4461692;32;34889;-70
2023/10/11 13:23:31;;;;;;;;;;;;;;;27.59;37.82;100435.53;4461945;32;33723;-70
2023/10/11 13:26:08;;;;;;;;;;;;;;;27.99;37.50;100426.94;4462785;32;34834;-70
2023/10/11 13:28:35;;;;;;;;;;;;;;;28.31;37.15;100430.81;4456184;32;32947;-70
2023/10/11 13:31:04;;;;;;;;;;;;;;;28.22;37.26;100420.31;4464476;32;33928;-70
2023/10/11 13:33:34;;;;;;;;;;;;;;;28.18;37.14;100422.19;4457527;32;34157;-70
2023/10/11 13:36:05;;;;;;;;;;;;;;;28.09;37.06;100418.81;4456823;32;33052;-71